Flight Track Log - Related Links

Times and Time Zones

All times are in EDT time to prevent confusion due to time zone crossing. See the SWR441 flight status page for this flight to view local times or setup timezone preferences in your user account.

Time Position Orientation Groundspeed Altitude Reporting Facility
EDT Latitude Longitude Course Direction KTS MPH feet Rate Location/Type
Fri 01:55:07 AM 51.5060 0.0410 272° West 105 121 800  Level FlightAware ADS-B
Fri 01:55:37 AM 51.5060 0.0170 270° West 108 124 1,900 1,745 Climbing FlightAware ADS-B
Fri 01:56:02 AM 51.5080 -0.0050 278° West 141 162 2,400 1,050 Climbing FlightAware ADS-B
Fri 01:56:17 AM 51.5150 -0.0190 309° West 179 206 2,600 1,000 Climbing FlightAware ADS-B
Fri 01:56:32 AM 51.5280 -0.0300 332° Northwest 208 239 2,900 857 Climbing FlightAware ADS-B
Fri 01:56:52 AM 51.5460 -0.0360 348° North 215 247 3,100 -2,108 Climbing FlightAware ADS-B
Fri 01:57:09 AM 51.5638 -0.0228 348° North 218 251 1,600  Descending FlightAware UK
Fri 01:57:12 AM 51.5640 -0.0220 348° North 244 281 3,100 5,333 Climbing FlightAware ADS-B
Fri 01:57:27 AM 51.5730 0.0030 60° Northeast 252 290 3,200 200 Climbing FlightAware ADS-B
Fri 01:57:42 AM 51.5760 0.0310 80° East 255 293 3,200  Level FlightAware ADS-B
Fri 01:58:07 AM 51.5770 0.0810 88° East 282 325 3,200 -1,600 Level FlightAware ADS-B
Fri 01:58:27 AM 51.5765 0.1281 88° East 258 297 2,000 1,400 Descending FlightAware UK
Fri 01:58:37 AM 51.5760 0.1450 88° East 290 334 3,900 2,200 Climbing FlightAware ADS-B
Fri 01:58:57 AM 51.5756 0.1934 88° East 260 299 3,100 1,920 Descending FlightAware UK
Fri 01:59:02 AM 51.5750 0.1980 88° East 296 341 4,700 1,750 Climbing FlightAware ADS-B
Fri 01:59:21 AM 51.5747 0.2463 88° East 262 302 3,800 1,600 Descending FlightAware UK
Fri 01:59:32 AM 51.5740 0.2670 88° East 301 346 5,500 4,385 Climbing FlightAware ADS-B
Fri 01:59:47 AM 51.5700 0.3000 101° East 299 344 5,700 -1,935 Climbing FlightAware ADS-B
Fri 02:00:03 AM 51.5597 0.3363 101° East 264 304 4,500 900 Descending FlightAware UK
Fri 02:00:07 AM 51.5600 0.3360 101° East 297 342 6,000 200 Climbing FlightAware ADS-B
Fri 02:00:33 AM 51.5401 0.3965 101° East 270 311 4,600 200 Descending FlightAware UK
Fri 02:00:37 AM 51.5410 0.3940 101° East 307 353 6,100  Climbing FlightAware ADS-B
Fri 02:00:57 AM 51.5236 0.4458 101° East 276 318 4,600 240 Descending FlightAware UK
Fri 02:01:02 AM 51.5230 0.4470 101° East 311 358 6,200 2,571 Climbing FlightAware ADS-B
Fri 02:01:32 AM 51.5010 0.5100 119° Southeast 310 357 6,100  Descending FlightAware ADS-B
Fri 02:02:02 AM 51.4810 0.5710 118° Southeast 311 358 6,200 171 Climbing FlightAware ADS-B
Fri 02:02:07 AM 51.4770 0.5830 118° Southeast 311 358 6,200  Level FlightAware ADS-B
Fri 02:02:37 AM 51.4570 0.6370 121° Southeast 306 352 6,200 300 Level FlightAware ADS-B
Fri 02:02:47 AM 51.4450 0.6520 142° Southeast 295 339 6,400 -947 Climbing FlightAware ADS-B
Fri 02:03:15 AM 51.4066 0.6852 142° Southeast 276 318 5,600 1,371 Descending FlightAware UK
Fri 02:03:22 AM 51.4000 0.6890 142° Southeast 294 338 7,200 3,568 Climbing FlightAware ADS-B
Fri 02:03:52 AM 51.3630 0.7200 152° Southeast 294 338 7,800 -255 Climbing FlightAware ADS-B
Fri 02:04:09 AM 51.3405 0.7383 152° Southeast 282 325 7,000 2,160 Descending FlightAware UK
Fri 02:04:17 AM 51.3340 0.7430 152° Southeast 295 339 8,700 2,000 Climbing FlightAware ADS-B
Fri 02:04:33 AM 51.3111 0.7619 152° Southeast 286 329 7,800 1,600 Descending FlightAware UK
Fri 02:04:47 AM 51.2980 0.7730 152° Southeast 297 342 9,500 4,345 Climbing FlightAware ADS-B
Fri 02:05:02 AM 51.2780 0.7890 153° Southeast 303 349 9,900 -1,765 Climbing FlightAware ADS-B
Fri 02:05:21 AM 51.2500 0.8110 153° Southeast 322 371 8,500 -2,108 Descending FlightAware UK
Fri 02:05:39 AM 51.2240 0.8310 154° Southeast 344 396 8,600 4,571 Climbing FlightAware UK
Fri 02:05:42 AM 51.2270 0.8280 154° Southeast 348 400 10,100 2,667 Climbing FlightAware ADS-B
Fri 02:05:57 AM 51.1975 0.8506 154° Southeast 346 398 9,400 462 Descending FlightAware UK
Fri 02:06:21 AM 51.1622 0.8766 155° Southeast 346 398 10,400 5,760 Climbing FlightAware UK
Fri 02:06:22 AM 51.1650 0.8740 155° Southeast 348 400 11,800 2,333 Climbing FlightAware ADS-B
Fri 02:06:39 AM 51.1359 0.8957 155° Southeast 342 394 11,100 2,488 Descending FlightAware UK
Fri 02:07:03 AM 51.0998 0.9139 155° Southeast 344 396 13,500 4,541 Climbing FlightAware ADS-B
Fri 02:07:16 AM 51.0802 0.9093 188° South 326 375 13,900 -140 Climbing FlightAware ADS-B
Fri 02:07:46 AM 51.0401 0.8812 188° South 348 400 13,400 1,950 Descending FlightAware UK
Fri 02:07:56 AM 51.0266 0.8719 188° South 327 376 15,200 4,091 Climbing FlightAware ADS-B
Fri 02:08:30 AM 50.9789 0.8361 205° Southwest 328 377 16,400 441 Climbing FlightAware ADS-B
Fri 02:09:04 AM 50.9327 0.8011 205° Southwest 360 414 15,700 -235 Descending FlightAware UK
Fri 02:09:21 AM 50.9079 0.7827 205° Southwest 362 417 16,200 5,520 Climbing FlightAware UK
Fri 02:09:29 AM 50.8972 0.7759 205° Southwest 329 379 18,000 2,000 Climbing FlightAware ADS-B
Fri 02:09:45 AM 50.8740 0.7576 205° Southwest 366 421 17,000 1,667 Descending FlightAware UK
Fri 02:10:05 AM 50.8467 0.7371 205° Southwest 338 389 19,000 1,167 Climbing FlightAware ADS-B
Fri 02:10:21 AM 50.8234 0.7194 205° Southwest 370 426 17,700 1,161 Descending FlightAware UK
Fri 02:10:36 AM 50.8026 0.7050 205° Southwest 346 398 19,600 1,161 Climbing FlightAware ADS-B
Fri 02:10:52 AM 50.7794 0.6866 205° Southwest 376 433 18,300 1,273 Descending FlightAware UK
Fri 02:11:09 AM 50.7545 0.6691 205° Southwest 349 402 20,300 1,543 Climbing FlightAware ADS-B
Fri 02:11:27 AM 50.7271 0.6477 205° Southwest 378 435 19,200 1,161 Descending FlightAware UK
Fri 02:11:40 AM 50.7086 0.6351 205° Southwest 356 410 20,900 1,135 Climbing FlightAware ADS-B
Fri 02:12:04 AM 50.6729 0.6075 205° Southwest 384 442 19,900 1,355 Descending FlightAware UK
Fri 02:12:11 AM 50.6624 0.5982 205° Southwest 357 411 21,600 1,241 Climbing FlightAware ADS-B
Fri 02:12:33 AM 50.6325 0.5636 205° Southwest 386 444 20,500 1,161 Descending FlightAware UK
Fri 02:12:42 AM 50.6209 0.5511 205° Southwest 355 409 22,200 1,000 Climbing FlightAware ADS-B
Fri 02:13:03 AM 50.5930 0.5176 205° Southwest 392 451 21,000 -1,385 Descending FlightAware UK
Fri 02:13:21 AM 50.5690 0.4894 217° Southwest 394 453 21,300 811 Climbing FlightAware UK
Fri 02:13:40 AM 50.5448 0.4607 217° Southwest 400 460 21,500 3,091 Climbing FlightAware UK
Fri 02:13:54 AM 50.5248 0.4373 217° Southwest 373 429 23,000  Climbing FlightAware ADS-B
Fri 02:14:21 AM 50.4862 0.3927 217° Southwest 404 465 21,500  Descending FlightAware UK
Fri 02:14:32 AM 50.4750 0.3800 217° Southwest 372 428 23,000 4,500 Climbing FlightAware ADS-B
Fri 02:14:41 AM 50.4593 0.3621 216° Southwest 372 428 23,000 150 Level FlightAware ADS-B
Fri 02:15:12 AM 50.4147 0.3146 214° Southwest 376 433 23,100 450 Climbing FlightAware ADS-B
Fri 02:15:21 AM 50.4001 0.3068 199° South 380 437 23,300 1,333 Climbing FlightAware ADS-B
Fri 02:15:30 AM 50.3839 0.3039 186° South 385 443 23,500 -1,600 Climbing FlightAware ADS-B
Fri 02:15:51 AM 50.3464 0.3104 186° South 394 453 22,500 -652 Descending FlightAware UK
Fri 02:16:16 AM 50.3037 0.3217 170° South 392 451 23,000 3,667 Climbing FlightAware UK
Fri 02:16:27 AM 50.2950 0.3240 170° South 379 436 24,700 2,353 Climbing FlightAware ADS-B
Fri 02:17:07 AM 50.2310 0.3580 161° South 404 465 25,000 -1,200 Climbing FlightAware ADS-B
Fri 02:17:27 AM 50.1791 0.3949 161° South 414 476 23,500  Descending FlightAware UK
Fri 02:17:52 AM 50.1480 0.4170 161° South 410 472 25,000  Climbing FlightAware ADS-B
Fri 02:18:10 AM 50.1048 0.4484 161° South 412 474 23,500  Descending FlightAware UK
Fri 02:18:27 AM 50.0800 0.4650 161° South 418 481 25,000  Climbing FlightAware ADS-B
Fri 02:18:52 AM 50.0306 0.5003 161° South 412 474 23,500  Descending FlightAware UK
Fri 02:19:17 AM 49.9890 0.5290 161° South 419 482 25,000  Climbing FlightAware ADS-B
Fri 02:19:34 AM 49.9562 0.5519 161° South 414 476 23,500  Descending FlightAware UK
Fri 02:19:57 AM 49.9220 0.5750 161° South 419 482 25,000  Climbing FlightAware ADS-B
Fri 02:20:16 AM 49.8817 0.6032 161° South 412 474 23,500 -2,432 Descending FlightAware UK
Fri 02:20:34 AM 49.8512 0.6294 151° Southeast 412 474 23,500 3,462 Level FlightAware UK
Fri 02:20:42 AM 49.8440 0.6370 151° Southeast 426 490 25,000 8,182 Climbing FlightAware ADS-B
Fri 02:20:45 AM 49.8330 0.6500 143° Southeast 426 490 25,000 -4,091 Level FlightAware ADS-B
Fri 02:21:04 AM 49.8044 0.6864 143° Southeast 414 476 23,500  Descending FlightAware UK
Fri 02:21:22 AM 49.7850 0.7100 143° Southeast 429 494 25,000 2,250 Climbing FlightAware ADS-B
Fri 02:21:44 AM 49.7420 0.7635 141° Southeast 429 494 25,000 -1,714 Level FlightAware ADS-B
Fri 02:22:04 AM 49.7114 0.8017 141° Southeast 410 472 23,800 1,459 Descending FlightAware UK
Fri 02:22:21 AM 49.6851 0.8338 141° Southeast 421 484 25,900 1,571 Climbing FlightAware ADS-B
Fri 02:22:46 AM 49.6495 0.8835 141° Southeast 402 463 24,900 1,313 Descending FlightAware UK
Fri 02:22:53 AM 49.6397 0.8979 141° Southeast 418 481 26,600 1,250 Climbing FlightAware ADS-B
Fri 02:23:10 AM 49.6160 0.9333 141° Southeast 398 458 25,400 1,235 Descending FlightAware UK
Fri 02:23:27 AM 49.5921 0.9667 141° Southeast 415 478 27,300 1,167 Climbing FlightAware ADS-B
Fri 02:23:46 AM 49.5662 1.0052 141° Southeast 396 456 26,100 1,050 Descending FlightAware UK
Fri 02:24:07 AM 49.5365 1.0467 141° Southeast 412 474 28,000 2,717 Climbing FlightAware ADS-B
Fri 02:24:39 AM 49.4917 1.1105 137° Southeast 411 473 28,500 938 Climbing FlightAware ADS-B
Fri 02:25:11 AM 49.4478 1.1740 137° Southeast 411 473 29,000 -1,091 Climbing FlightAware ADS-B
Fri 02:25:34 AM 49.4157 1.2204 137° Southeast 396 456 27,500  Descending FlightAware UK
Fri 02:25:43 AM 49.4034 1.2374 137° Southeast 408 470 29,000  Climbing FlightAware ADS-B
Fri 02:26:04 AM 49.3745 1.2792 137° Southeast 394 453 27,500  Descending FlightAware UK
Fri 02:26:14 AM 49.3613 1.2963 137° Southeast 406 467 29,000  Climbing FlightAware ADS-B
Fri 02:26:40 AM 49.3245 1.3498 137° Southeast 392 451 27,500  Descending FlightAware UK
Fri 02:26:46 AM 49.3162 1.3605 137° Southeast 405 466 29,000  Climbing FlightAware ADS-B
Fri 02:27:04 AM 49.2915 1.3963 137° Southeast 394 453 27,500  Descending FlightAware UK
Fri 02:27:17 AM 49.2739 1.4211 137° Southeast 405 466 29,000  Climbing FlightAware ADS-B
Fri 02:27:46 AM 49.2337 1.4783 137° Southeast 392 451 27,500  Descending FlightAware UK
Fri 02:27:57 AM 49.2191 1.4967 137° Southeast 404 465 29,000 2,000 Climbing FlightAware ADS-B
Fri 02:28:31 AM 49.1721 1.5627 137° Southeast 407 468 29,000 -1,636 Level FlightAware ADS-B
Fri 02:28:52 AM 49.1426 1.6064 137° Southeast 396 456 27,500  Descending FlightAware UK
Fri 02:29:06 AM 49.1233 1.6327 137° Southeast 406 467 29,000  Climbing FlightAware ADS-B
Fri 02:29:22 AM 49.1010 1.6647 137° Southeast 396 456 27,500  Descending FlightAware UK
Fri 02:29:39 AM 49.0780 1.6948 137° Southeast 406 467 29,000  Climbing FlightAware ADS-B
Fri 02:30:04 AM 49.0429 1.7462 137° Southeast 396 456 27,500  Descending FlightAware UK
Fri 02:30:12 AM 49.0315 1.7606 137° Southeast 406 467 29,000  Climbing FlightAware ADS-B
Fri 02:30:28 AM 49.0095 1.7925 137° Southeast 394 453 27,500  Descending FlightAware UK
Fri 02:30:42 AM 48.9898 1.8183 137° Southeast 406 467 29,000  Climbing FlightAware ADS-B
Fri 02:30:58 AM 48.9679 1.8503 137° Southeast 394 453 27,500  Descending FlightAware UK
Fri 02:31:13 AM 48.9473 1.8781 137° Southeast 407 468 29,000  Climbing FlightAware ADS-B
Fri 02:31:28 AM 48.9261 1.9081 137° Southeast 396 456 27,500  Descending FlightAware UK
Fri 02:31:43 AM 48.9048 1.9361 137° Southeast 408 470 29,000  Climbing FlightAware ADS-B
Fri 02:32:04 AM 48.8757 1.9779 137° Southeast 398 458 27,500  Descending FlightAware UK
Fri 02:32:14 AM 48.8627 1.9939 137° Southeast 406 467 29,000 2,250 Climbing FlightAware ADS-B
Fri 02:32:44 AM 48.8209 2.0513 138° Southeast 404 465 29,000 -1,800 Level FlightAware ADS-B
Fri 02:33:04 AM 48.7921 2.0926 138° Southeast 394 453 27,500  Descending FlightAware UK
Fri 02:33:15 AM 48.7772 2.1122 138° Southeast 404 465 29,000  Climbing FlightAware ADS-B
Fri 02:33:35 AM 48.7505 2.1502 138° Southeast 396 456 27,500  Descending FlightAware UK
Fri 02:33:49 AM 48.7311 2.1747 138° Southeast 404 465 29,000 1,957 Climbing FlightAware ADS-B
Fri 02:34:21 AM 48.6862 2.2374 137° Southeast 404 465 29,000 -1,731 Level FlightAware ADS-B
Fri 02:34:41 AM 48.6590 2.2751 137° Southeast 396 456 27,500  Descending FlightAware UK
Fri 02:35:03 AM 48.6279 2.3167 137° Southeast 402 463 29,000 1,667 Climbing FlightAware ADS-B
Fri 02:35:35 AM 48.5842 2.3749 139° Southeast 403 464 29,000  Level FlightAware ADS-B
Fri 02:36:05 AM 48.5424 2.4332 137° Southeast 404 465 29,000  Level FlightAware ADS-B
Fri 02:36:36 AM 48.4988 2.4914 139° Southeast 403 464 29,000  Level FlightAware ADS-B
Fri 02:37:06 AM 48.4573 2.5475 138° Southeast 401 461 29,000  Level FlightAware ADS-B
Fri 02:37:36 AM 48.4164 2.6033 138° Southeast 400 460 29,000  Level FlightAware ADS-B
Fri 02:38:07 AM 48.3732 2.6609 138° Southeast 401 461 29,000  Level FlightAware ADS-B
Fri 02:38:43 AM 48.3244 2.7257 139° Southeast 401 461 29,000  Level FlightAware ADS-B
Fri 02:39:24 AM 48.2677 2.8031 138° Southeast 398 458 29,000  Level FlightAware ADS-B
Fri 02:39:54 AM 48.2262 2.8581 139° Southeast 397 457 29,000  Level FlightAware ADS-B
Fri 02:40:24 AM 48.1848 2.9126 139° Southeast 394 453 29,000  Level FlightAware ADS-B
Fri 02:40:57 AM 48.1408 2.9704 139° Southeast 392 451 29,000  Level FlightAware ADS-B
Fri 02:41:28 AM 48.0976 3.0278 138° Southeast 393 452 29,000  Level FlightAware ADS-B
Fri 02:41:32 AM 48.0920 3.0344 142° Southeast 392 451 29,000  Level FlightAware ADS-B
Fri 02:41:46 AM 48.0709 3.0545 147° Southeast 390 449 29,000  Level FlightAware ADS-B
Fri 02:42:19 AM 48.0165 3.0903 156° South 387 445 29,000  Level FlightAware ADS-B
Fri 02:43:07 AM 47.9440 3.1360 157° South 385 443 29,000  Level FlightAware ADS-B
Fri 02:43:47 AM 47.8770 3.1780 157° South 382 440 29,000  Level FlightAware ADS-B
Fri 02:44:27 AM 47.8130 3.2170 158° South 380 437 29,000  Level FlightAware ADS-B
Fri 02:45:12 AM 47.7370 3.2650 157° South 381 438 29,000  Level FlightAware ADS-B
Fri 02:45:52 AM 47.6720 3.3060 157° South 385 443 29,000  Level FlightAware ADS-B
Fri 02:46:37 AM 47.6050 3.3650 149° Southeast 401 461 29,000  Level FlightAware ADS-B
Fri 02:47:17 AM 47.5580 3.4540 128° Southeast 406 467 29,000  Level FlightAware ADS-B
Fri 02:47:20 AM 47.5513 3.4672 127° Southeast 406 467 29,000  Level FlightAware ADS-B
Fri 02:47:54 AM 47.5147 3.5412 126° Southeast 406 467 29,000  Level FlightAware ADS-B
Fri 02:48:24 AM 47.4813 3.6082 126° Southeast 404 465 29,000  Level FlightAware ADS-B
Fri 02:48:55 AM 47.4467 3.6793 126° Southeast 405 466 29,000  Level FlightAware ADS-B
Fri 02:49:29 AM 47.4087 3.7544 127° Southeast 404 465 29,000  Level FlightAware ADS-B
Fri 02:50:06 AM 47.3674 3.8355 127° Southeast 402 463 29,000  Level FlightAware ADS-B
Fri 02:50:36 AM 47.3337 3.9012 127° Southeast 401 461 29,000  Level FlightAware ADS-B
Fri 02:51:06 AM 47.2999 3.9668 127° Southeast 401 461 29,000  Level FlightAware ADS-B
Fri 02:51:44 AM 47.2582 4.0480 127° Southeast 405 466 29,000  Level FlightAware ADS-B
Fri 02:52:20 AM 47.2172 4.1297 126° Southeast 406 467 29,000  Level FlightAware ADS-B
Fri 02:52:52 AM 47.1830 4.1960 127° Southeast 405 466 29,000  Level FlightAware ADS-B
Fri 02:53:32 AM 47.1390 4.2810 127° Southeast 402 463 29,000  Level FlightAware ADS-B
Fri 02:54:12 AM 47.0930 4.3710 127° Southeast 404 465 29,000  Level FlightAware ADS-B
Fri 02:54:57 AM 47.0440 4.4650 127° Southeast 406 467 29,000 -67 Level FlightAware ADS-B
Fri 02:55:42 AM 46.9910 4.5670 127° Southeast 401 461 28,900 -525 Descending FlightAware ADS-B
Fri 02:56:17 AM 46.9540 4.6390 127° Southeast 397 457 28,300 -1,129 Descending FlightAware ADS-B
Fri 02:57:07 AM 46.9010 4.7410 127° Southeast 401 461 27,300 -1,200 Descending FlightAware ADS-B
Fri 02:57:47 AM 46.8510 4.8360 128° Southeast 406 467 26,500 -1,200 Descending FlightAware ADS-B
Fri 02:58:27 AM 46.8050 4.9210 128° Southeast 408 470 25,700 -1,125 Descending FlightAware ADS-B
Fri 02:59:07 AM 46.7650 4.9980 127° Southeast 405 466 25,000 -1,200 Descending FlightAware ADS-B
Fri 02:59:52 AM 46.7070 5.1070 128° Southeast 404 465 24,000 -1,200 Descending FlightAware ADS-B
Fri 03:00:32 AM 46.6680 5.1930 123° Southeast 422 486 23,300 -1,059 Descending FlightAware ADS-B
Fri 03:01:17 AM 46.6440 5.3200 105° East 417 480 22,500 -1,461 Descending FlightAware ADS-B
Fri 03:02:27 AM 46.6040 5.4980 108° East 403 464 20,500 -1,714 Descending FlightAware ADS-B
Fri 03:03:02 AM 46.5830 5.5880 109° East 398 458 19,500 -2,250 Descending FlightAware ADS-B
Fri 03:03:47 AM 46.5560 5.7060 108° East 378 435 17,500 -2,867 Descending FlightAware ADS-B
Fri 03:04:32 AM 46.5300 5.8180 109° East 373 429 15,200 -3,106 Descending FlightAware ADS-B
Fri 03:05:12 AM 46.5080 5.9120 109° East 366 421 13,100 -2,894 Descending FlightAware ADS-B
Fri 03:05:57 AM 46.4850 6.0100 109° East 315 362 11,100 -2,612 Descending FlightAware ADS-B
Fri 03:06:37 AM 46.4670 6.0850 109° East 276 318 9,400 -2,486 Descending FlightAware ADS-B
Fri 03:07:07 AM 46.4540 6.1380 110° East 288 331 8,200 -2,073 Descending FlightAware ADS-B
Fri 03:07:32 AM 46.4420 6.1820 112° Southeast 284 327 7,500 -1,309 Descending FlightAware ADS-B
Fri 03:08:02 AM 46.4240 6.2310 118° Southeast 259 298 7,000 -1,200 Descending FlightAware ADS-B
Fri 03:08:32 AM 46.4000 6.2640 137° Southeast 227 261 6,300 -1,855 Descending FlightAware ADS-B
Fri 03:08:57 AM 46.3760 6.2810 154° Southeast 225 259 5,300 -2,400 Descending FlightAware ADS-B
Fri 03:09:27 AM 46.3460 6.2680 197° South 223 257 4,100 -2,133 Descending FlightAware ADS-B
Fri 03:09:42 AM 46.3350 6.2540 221° Southwest 212 244 3,700 -1,350 Descending FlightAware ADS-B
Fri 03:10:07 AM 46.3180 6.2270 228° Southwest 212 244 3,200 -1,200 Descending FlightAware ADS-B
Fri 03:10:37 AM 46.2990 6.1980 227° Southwest 164 189 2,600 -982 Descending FlightAware ADS-B
Fri 03:11:02 AM 46.2860 6.1810 222° Southwest 136 157 2,300 -655 Descending FlightAware ADS-B
Fri 03:11:32 AM 46.2740 6.1620 228° Southwest 121 139 2,000 -700 Descending FlightAware ADS-B
Fri 03:12:02 AM 46.2620 6.1440 226° Southwest 126 145 1,600 -750 Descending FlightAware ADS-B
Fri 03:12:12 AM 46.2570 6.1380 220° Southwest 126 145 1,500 -600 Descending FlightAware ADS-B

Login

Don't have an account? Register now (free) for customized features, flight alerts, and more!